sensor_id;sensor_type;location;lat;lon;timestamp;pressure;altitude;pressure_sealevel;temperature;humidity
15050;BME280;7622;42.724;23.250;2022-10-31T00:01:41;95151.78;;;14.26;100.00
15050;BME280;7622;42.724;23.250;2022-10-31T00:04:08;95152.16;;;14.31;100.00
15050;BME280;7622;42.724;23.250;2022-10-31T00:06:35;95160.09;;;14.22;100.00
15050;BME280;7622;42.724;23.250;2022-10-31T00:09:04;95161.59;;;14.24;100.00
15050;BME280;7622;42.724;23.250;2022-10-31T00:14:10;95163.19;;;14.25;100.00
15050;BME280;7622;42.724;23.250;2022-10-31T00:16:37;95174.09;;;14.38;100.00
15050;BME280;7622;42.724;23.250;2022-10-31T00:19:06;95165.88;;;14.33;100.00
15050;BME280;7622;42.724;23.250;2022-10-31T00:21:34;95175.75;;;14.39;100.00
15050;BME280;7622;42.724;23.250;2022-10-31T00:24:01;95155.28;;;14.35;100.00
15050;BME280;7622;42.724;23.250;2022-10-31T00:26:28;95154.09;;;14.29;100.00
15050;BME280;7622;42.724;23.250;2022-10-31T00:28:56;95157.50;;;14.47;100.00
15050;BME280;7622;42.724;23.250;2022-10-31T00:31:24;95162.09;;;14.53;100.00
15050;BME280;7622;42.724;23.250;2022-10-31T00:33:51;95162.06;;;14.45;100.00
15050;BME280;7622;42.724;23.250;2022-10-31T00:36:18;95154.94;;;14.55;100.00
15050;BME280;7622;42.724;23.250;2022-10-31T00:38:46;95161.69;;;14.66;100.00
15050;BME280;7622;42.724;23.250;2022-10-31T00:41:15;95151.69;;;14.62;100.00
15050;BME280;7622;42.724;23.250;2022-10-31T00:43:43;95152.66;;;14.61;100.00
15050;BME280;7622;42.724;23.250;2022-10-31T00:46:10;95126.13;;;14.47;100.00
15050;BME280;7622;42.724;23.250;2022-10-31T00:48:38;95147.75;;;14.57;100.00
15050;BME280;7622;42.724;23.250;2022-10-31T00:51:05;95134.84;;;14.56;100.00
15050;BME280;7622;42.724;23.250;2022-10-31T00:53:32;95143.91;;;14.70;100.00
15050;BME280;7622;42.724;23.250;2022-10-31T00:55:59;95146.66;;;14.68;100.00
15050;BME280;7622;42.724;23.250;2022-10-31T00:58:26;95148.16;;;14.71;100.00
15050;BME280;7622;42.724;23.250;2022-10-31T01:00:53;95151.69;;;14.62;100.00
15050;BME280;7622;42.724;23.250;2022-10-31T01:03:21;95144.19;;;14.67;100.00
15050;BME280;7622;42.724;23.250;2022-10-31T01:05:57;95146.22;;;14.73;100.00
15050;BME280;7622;42.724;23.250;2022-10-31T01:08:25;95153.69;;;14.68;100.00
15050;BME280;7622;42.724;23.250;2022-10-31T01:10:59;95145.72;;;14.77;100.00
15050;BME280;7622;42.724;23.250;2022-10-31T01:13:26;95157.06;;;14.86;100.00
15050;BME280;7622;42.724;23.250;2022-10-31T01:15:54;95159.88;;;14.67;100.00
15050;BME280;7622;42.724;23.250;2022-10-31T01:18:21;95152.41;;;14.80;100.00
15050;BME280;7622;42.724;23.250;2022-10-31T01:20:51;95161.41;;;14.77;100.00
15050;BME280;7622;42.724;23.250;2022-10-31T01:23:24;95153.34;;;14.63;100.00
15050;BME280;7622;42.724;23.250;2022-10-31T01:25:59;95160.16;;;14.55;100.00
15050;BME280;7622;42.724;23.250;2022-10-31T01:28:26;95152.66;;;14.61;100.00
15050;BME280;7622;42.724;23.250;2022-10-31T01:30:52;95153.50;;;14.61;100.00
15050;BME280;7622;42.724;23.250;2022-10-31T01:33:19;95158.03;;;14.51;100.00
15050;BME280;7622;42.724;23.250;2022-10-31T01:35:46;95157.69;;;14.54;100.00
15050;BME280;7622;42.724;23.250;2022-10-31T01:38:13;95163.88;;;14.45;100.00
15050;BME280;7622;42.724;23.250;2022-10-31T01:40:41;95153.00;;;14.57;100.00
15050;BME280;7622;42.724;23.250;2022-10-31T01:43:12;95146.22;;;14.47;100.00
15050;BME280;7622;42.724;23.250;2022-10-31T01:45:39;95159.03;;;14.58;100.00
15050;BME280;7622;42.724;23.250;2022-10-31T01:48:13;95161.09;;;14.46;100.00
15050;BME280;7622;42.724;23.250;2022-10-31T01:50:43;95160.78;;;14.49;100.00
15050;BME280;7622;42.724;23.250;2022-10-31T01:53:12;95159.44;;;14.45;100.00
15050;BME280;7622;42.724;23.250;2022-10-31T01:55:43;95165.97;;;14.41;100.00
15050;BME280;7622;42.724;23.250;2022-10-31T01:58:13;95147.28;;;14.36;100.00
15050;BME280;7622;42.724;23.250;2022-10-31T02:00:43;95166.97;;;14.48;100.00
15050;BME280;7622;42.724;23.250;2022-10-31T02:03:12;95165.69;;;14.52;100.00
15050;BME280;7622;42.724;23.250;2022-10-31T02:05:39;95157.06;;;14.60;100.00
15050;BME280;7622;42.724;23.250;2022-10-31T02:08:12;95161.38;;;14.69;100.00
15050;BME280;7622;42.724;23.250;2022-10-31T02:10:42;95156.41;;;14.92;100.00
15050;BME280;7622;42.724;23.250;2022-10-31T02:13:10;95156.59;;;14.98;100.00
15050;BME280;7622;42.724;23.250;2022-10-31T02:15:39;95153.03;;;15.08;100.00
15050;BME280;7622;42.724;23.250;2022-10-31T02:18:07;95156.00;;;15.13;100.00
15050;BME280;7622;42.724;23.250;2022-10-31T02:20:41;95162.31;;;15.02;100.00
15050;BME280;7622;42.724;23.250;2022-10-31T02:23:53;95163.00;;;15.04;100.00
15050;BME280;7622;42.724;23.250;2022-10-31T02:30:02;95172.84;;;15.10;100.00
15050;BME280;7622;42.724;23.250;2022-10-31T02:32:41;95169.69;;;14.98;100.00
15050;BME280;7622;42.724;23.250;2022-10-31T02:35:13;95176.03;;;14.96;100.00
15050;BME280;7622;42.724;23.250;2022-10-31T02:37:48;95175.06;;;14.97;100.00
15050;BME280;7622;42.724;23.250;2022-10-31T02:40:21;95178.47;;;14.89;100.00
15050;BME280;7622;42.724;23.250;2022-10-31T02:42:57;95172.75;;;14.86;100.00
15050;BME280;7622;42.724;23.250;2022-10-31T02:45:28;95179.09;;;14.83;100.00
15050;BME280;7622;42.724;23.250;2022-10-31T02:48:01;95183.13;;;14.70;100.00
15050;BME280;7622;42.724;23.250;2022-10-31T02:50:35;95185.38;;;14.65;100.00
15050;BME280;7622;42.724;23.250;2022-10-31T02:53:04;95189.28;;;14.61;100.00
15050;BME280;7622;42.724;23.250;2022-10-31T02:55:51;95189.28;;;14.61;100.00
15050;BME280;7622;42.724;23.250;2022-10-31T02:58:24;95152.81;;;14.33;100.00
15050;BME280;7622;42.724;23.250;2022-10-31T03:03:59;95195.88;;;14.47;100.00
15050;BME280;7622;42.724;23.250;2022-10-31T03:06:33;95195.13;;;14.54;100.00
15050;BME280;7622;42.724;23.250;2022-10-31T03:09:11;95199.84;;;14.51;100.00
15050;BME280;7622;42.724;23.250;2022-10-31T03:11:43;95186.28;;;14.30;100.00
15050;BME280;7622;42.724;23.250;2022-10-31T03:14:19;95186.69;;;14.17;100.00
15050;BME280;7622;42.724;23.250;2022-10-31T03:16:48;95200.19;;;14.12;100.00
15050;BME280;7622;42.724;23.250;2022-10-31T03:19:19;95207.59;;;14.17;100.00
15050;BME280;7622;42.724;23.250;2022-10-31T03:21:53;95183.88;;;13.93;100.00
15050;BME280;7622;42.724;23.250;2022-10-31T03:24:27;95207.81;;;14.06;100.00
15050;BME280;7622;42.724;23.250;2022-10-31T03:26:57;95202.28;;;13.91;100.00
15050;BME280;7622;42.724;23.250;2022-10-31T03:29:28;95208.06;;;13.95;100.00
15050;BME280;7622;42.724;23.250;2022-10-31T03:32:00;95204.25;;;13.89;100.00
15050;BME280;7622;42.724;23.250;2022-10-31T03:34:30;95211.06;;;13.82;100.00
15050;BME280;7622;42.724;23.250;2022-10-31T03:36:59;95215.38;;;13.73;100.00
15050;BME280;7622;42.724;23.250;2022-10-31T03:39:28;95217.31;;;13.71;100.00
15050;BME280;7622;42.724;23.250;2022-10-31T03:41:59;95223.03;;;13.57;100.00
15050;BME280;7622;42.724;23.250;2022-10-31T03:44:29;95198.34;;;13.34;100.00
15050;BME280;7622;42.724;23.250;2022-10-31T03:46:57;95221.50;;;13.37;100.00
15050;BME280;7622;42.724;23.250;2022-10-31T03:49:24;95228.75;;;13.43;100.00
15050;BME280;7622;42.724;23.250;2022-10-31T03:51:57;95220.19;;;13.33;100.00
15050;BME280;7622;42.724;23.250;2022-10-31T03:54:31;95221.63;;;13.18;100.00
15050;BME280;7622;42.724;23.250;2022-10-31T03:57:05;95226.19;;;13.06;100.00
15050;BME280;7622;42.724;23.250;2022-10-31T03:59:36;95225.16;;;12.89;100.00
15050;BME280;7622;42.724;23.250;2022-10-31T04:02:09;95227.53;;;12.73;100.00
15050;BME280;7622;42.724;23.250;2022-10-31T04:04:38;95230.63;;;12.96;100.00
15050;BME280;7622;42.724;23.250;2022-10-31T04:07:08;95226.47;;;13.13;100.00
15050;BME280;7622;42.724;23.250;2022-10-31T04:09:37;95211.38;;;13.34;100.00
15050;BME280;7622;42.724;23.250;2022-10-31T04:12:08;95225.28;;;13.25;100.00
15050;BME280;7622;42.724;23.250;2022-10-31T04:14:37;95241.53;;;13.46;100.00
15050;BME280;7622;42.724;23.250;2022-10-31T04:17:14;95233.94;;;13.53;100.00
15050;BME280;7622;42.724;23.250;2022-10-31T04:19:42;95244.88;;;13.56;100.00
15050;BME280;7622;42.724;23.250;2022-10-31T04:22:10;95240.38;;;13.49;100.00
15050;BME280;7622;42.724;23.250;2022-10-31T04:24:39;95228.25;;;14.28;100.00
15050;BME280;7622;42.724;23.250;2022-10-31T04:27:06;95231.03;;;14.52;100.00
15050;BME280;7622;42.724;23.250;2022-10-31T04:29:32;95247.00;;;14.41;100.00
15050;BME280;7622;42.724;23.250;2022-10-31T04:31:59;95240.31;;;14.03;100.00
15050;BME280;7622;42.724;23.250;2022-10-31T04:34:26;95232.38;;;13.77;100.00
15050;BME280;7622;42.724;23.250;2022-10-31T04:36:53;95249.50;;;13.62;100.00
15050;BME280;7622;42.724;23.250;2022-10-31T04:39:21;95217.72;;;13.49;100.00
15050;BME280;7622;42.724;23.250;2022-10-31T04:41:47;95239.00;;;13.72;100.00
15050;BME280;7622;42.724;23.250;2022-10-31T04:44:15;95244.28;;;13.62;100.00
15050;BME280;7622;42.724;23.250;2022-10-31T04:46:41;95243.13;;;13.74;100.00
15050;BME280;7622;42.724;23.250;2022-10-31T04:49:08;95237.59;;;13.77;100.00
15050;BME280;7622;42.724;23.250;2022-10-31T04:51:35;95250.13;;;13.92;100.00
15050;BME280;7622;42.724;23.250;2022-10-31T04:54:02;95252.75;;;13.74;100.00
15050;BME280;7622;42.724;23.250;2022-10-31T04:56:31;95258.41;;;13.69;100.00
15050;BME280;7622;42.724;23.250;2022-10-31T04:58:57;95263.28;;;13.82;100.00
15050;BME280;7622;42.724;23.250;2022-10-31T05:01:24;95261.34;;;13.39;100.00
15050;BME280;7622;42.724;23.250;2022-10-31T05:03:51;95260.72;;;13.27;100.00
15050;BME280;7622;42.724;23.250;2022-10-31T05:06:18;95260.44;;;13.75;100.00
15050;BME280;7622;42.724;23.250;2022-10-31T05:08:45;95259.69;;;14.01;100.00
15050;BME280;7622;42.724;23.250;2022-10-31T05:11:11;95269.97;;;14.20;100.00
15050;BME280;7622;42.724;23.250;2022-10-31T05:13:40;95273.56;;;14.19;100.00
15050;BME280;7622;42.724;23.250;2022-10-31T05:16:06;95272.84;;;14.09;100.00
15050;BME280;7622;42.724;23.250;2022-10-31T05:18:33;95275.06;;;14.39;100.00
15050;BME280;7622;42.724;23.250;2022-10-31T05:21:00;95276.97;;;14.73;100.00
15050;BME280;7622;42.724;23.250;2022-10-31T05:23:27;95275.94;;;14.66;100.00
15050;BME280;7622;42.724;23.250;2022-10-31T05:25:53;95286.63;;;14.54;100.00
15050;BME280;7622;42.724;23.250;2022-10-31T05:28:20;95282.84;;;14.31;100.00
15050;BME280;7622;42.724;23.250;2022-10-31T05:30:49;95281.41;;;14.01;100.00
15050;BME280;7622;42.724;23.250;2022-10-31T05:33:16;95273.69;;;13.64;100.00
15050;BME280;7622;42.724;23.250;2022-10-31T05:35:42;95292.28;;;13.61;100.00
15050;BME280;7622;42.724;23.250;2022-10-31T05:38:09;95286.06;;;13.62;100.00
15050;BME280;7622;42.724;23.250;2022-10-31T05:40:36;95295.59;;;13.54;100.00
15050;BME280;7622;42.724;23.250;2022-10-31T05:43:03;95288.25;;;13.39;100.00
15050;BME280;7622;42.724;23.250;2022-10-31T05:45:29;95298.22;;;13.54;100.00
15050;BME280;7622;42.724;23.250;2022-10-31T05:47:59;95296.19;;;13.48;100.00
15050;BME280;7622;42.724;23.250;2022-10-31T05:50:27;95296.91;;;13.40;100.00
15050;BME280;7622;42.724;23.250;2022-10-31T05:52:55;95291.88;;;13.56;100.00
15050;BME280;7622;42.724;23.250;2022-10-31T05:55:22;95293.22;;;13.60;100.00
15050;BME280;7622;42.724;23.250;2022-10-31T05:57:50;95305.00;;;13.64;100.00
15050;BME280;7622;42.724;23.250;2022-10-31T06:00:17;95303.69;;;13.60;100.00
15050;BME280;7622;42.724;23.250;2022-10-31T06:02:44;95306.94;;;13.62;100.00
15050;BME280;7622;42.724;23.250;2022-10-31T06:05:13;95308.69;;;13.71;100.00
15050;BME280;7622;42.724;23.250;2022-10-31T06:07:40;95316.59;;;13.79;100.00
15050;BME280;7622;42.724;23.250;2022-10-31T06:10:07;95308.53;;;13.73;100.00
15050;BME280;7622;42.724;23.250;2022-10-31T06:12:35;95316.53;;;13.71;100.00
15050;BME280;7622;42.724;23.250;2022-10-31T06:15:04;95326.22;;;13.79;100.00
15050;BME280;7622;42.724;23.250;2022-10-31T06:17:32;95323.91;;;13.49;100.00
15050;BME280;7622;42.724;23.250;2022-10-31T06:19:58;95330.84;;;13.40;100.00
15050;BME280;7622;42.724;23.250;2022-10-31T06:22:27;95327.31;;;13.59;100.00
15050;BME280;7622;42.724;23.250;2022-10-31T06:24:54;95314.63;;;13.64;100.00
15050;BME280;7622;42.724;23.250;2022-10-31T06:27:21;95330.38;;;13.99;100.00
15050;BME280;7622;42.724;23.250;2022-10-31T06:29:47;95346.59;;;14.38;100.00
15050;BME280;7622;42.724;23.250;2022-10-31T06:32:14;95338.31;;;15.04;100.00
15050;BME280;7622;42.724;23.250;2022-10-31T06:34:42;95335.28;;;15.51;100.00
15050;BME280;7622;42.724;23.250;2022-10-31T06:37:11;95333.00;;;15.82;100.00
15050;BME280;7622;42.724;23.250;2022-10-31T06:39:39;95325.56;;;16.35;100.00
15050;BME280;7622;42.724;23.250;2022-10-31T06:42:06;95338.22;;;16.80;100.00
15050;BME280;7622;42.724;23.250;2022-10-31T06:44:33;95345.72;;;17.32;100.00
15050;BME280;7622;42.724;23.250;2022-10-31T06:46:59;95351.31;;;17.29;100.00
15050;BME280;7622;42.724;23.250;2022-10-31T06:49:26;95353.16;;;17.20;100.00
15050;BME280;7622;42.724;23.250;2022-10-31T06:51:53;95353.31;;;17.03;100.00
15050;BME280;7622;42.724;23.250;2022-10-31T06:54:20;95355.22;;;17.49;100.00
15050;BME280;7622;42.724;23.250;2022-10-31T06:56:48;95328.50;;;17.85;100.00
15050;BME280;7622;42.724;23.250;2022-10-31T06:59:15;95350.81;;;17.97;100.00
15050;BME280;7622;42.724;23.250;2022-10-31T07:01:43;95346.81;;;18.01;100.00
15050;BME280;7622;42.724;23.250;2022-10-31T07:04:10;95340.50;;;18.18;100.00
15050;BME280;7622;42.724;23.250;2022-10-31T07:06:37;95342.25;;;18.57;98.96
15050;BME280;7622;42.724;23.250;2022-10-31T07:09:04;95325.19;;;19.27;92.56
15050;BME280;7622;42.724;23.250;2022-10-31T07:11:31;95348.84;;;19.80;86.70
15050;BME280;7622;42.724;23.250;2022-10-31T07:13:59;95352.09;;;19.96;85.61
15050;BME280;7622;42.724;23.250;2022-10-31T07:16:26;95354.03;;;20.38;81.44
15050;BME280;7622;42.724;23.250;2022-10-31T07:18:53;95349.63;;;20.60;80.81
15050;BME280;7622;42.724;23.250;2022-10-31T07:21:20;95351.78;;;21.20;77.03
15050;BME280;7622;42.724;23.250;2022-10-31T07:23:47;95344.53;;;21.29;72.37
15050;BME280;7622;42.724;23.250;2022-10-31T07:26:14;95315.94;;;20.90;74.99
15050;BME280;7622;42.724;23.250;2022-10-31T07:28:41;95328.63;;;21.50;73.40
15050;BME280;7622;42.724;23.250;2022-10-31T07:31:09;95336.06;;;21.40;71.66
15050;BME280;7622;42.724;23.250;2022-10-31T07:33:36;95334.09;;;22.24;68.33
15050;BME280;7622;42.724;23.250;2022-10-31T07:36:03;95332.44;;;22.23;66.23
15050;BME280;7622;42.724;23.250;2022-10-31T07:38:29;95341.06;;;22.45;65.36
15050;BME280;7622;42.724;23.250;2022-10-31T07:40:56;95340.44;;;22.43;66.25
15050;BME280;7622;42.724;23.250;2022-10-31T07:43:23;95335.69;;;22.12;68.03
15050;BME280;7622;42.724;23.250;2022-10-31T07:45:50;95333.78;;;22.06;68.71
15050;BME280;7622;42.724;23.250;2022-10-31T07:48:19;95328.47;;;22.54;67.12
15050;BME280;7622;42.724;23.250;2022-10-31T07:50:46;95341.13;;;22.65;65.95
15050;BME280;7622;42.724;23.250;2022-10-31T07:53:13;95337.94;;;23.35;62.81
15050;BME280;7622;42.724;23.250;2022-10-31T07:55:41;95326.88;;;23.45;61.51
15050;BME280;7622;42.724;23.250;2022-10-31T07:58:09;95335.78;;;23.97;59.44
15050;BME280;7622;42.724;23.250;2022-10-31T08:00:37;95334.22;;;23.69;60.40
15050;BME280;7622;42.724;23.250;2022-10-31T08:03:06;95331.78;;;23.61;61.10
15050;BME280;7622;42.724;23.250;2022-10-31T08:05:34;95328.09;;;23.75;60.62
15050;BME280;7622;42.724;23.250;2022-10-31T08:08:02;95328.91;;;23.69;61.51
15050;BME280;7622;42.724;23.250;2022-10-31T08:10:29;95332.06;;;24.04;59.94
15050;BME280;7622;42.724;23.250;2022-10-31T08:12:57;95331.19;;;23.52;61.79
15050;BME280;7622;42.724;23.250;2022-10-31T08:15:25;95328.06;;;23.82;59.96
15050;BME280;7622;42.724;23.250;2022-10-31T08:17:52;95328.50;;;23.59;61.66
15050;BME280;7622;42.724;23.250;2022-10-31T08:20:19;95339.44;;;23.95;59.66
15050;BME280;7622;42.724;23.250;2022-10-31T08:22:54;95325.91;;;24.17;58.90
15050;BME280;7622;42.724;23.250;2022-10-31T08:25:21;95327.28;;;24.32;58.40
15050;BME280;7622;42.724;23.250;2022-10-31T08:27:49;95338.56;;;24.15;59.42
15050;BME280;7622;42.724;23.250;2022-10-31T08:30:17;95331.84;;;24.12;60.31
15050;BME280;7622;42.724;23.250;2022-10-31T08:32:44;95332.38;;;24.34;58.98
15050;BME280;7622;42.724;23.250;2022-10-31T08:35:11;95321.81;;;24.14;59.74
15050;BME280;7622;42.724;23.250;2022-10-31T08:37:38;95323.34;;;24.42;59.23
15050;BME280;7622;42.724;23.250;2022-10-31T08:40:07;95320.81;;;24.91;57.66
15050;BME280;7622;42.724;23.250;2022-10-31T08:42:34;95322.34;;;24.74;57.96
15050;BME280;7622;42.724;23.250;2022-10-31T08:45:00;95323.25;;;24.61;58.44
15050;BME280;7622;42.724;23.250;2022-10-31T08:47:27;95327.97;;;24.91;57.58
15050;BME280;7622;42.724;23.250;2022-10-31T08:49:54;95314.25;;;25.43;54.94
15050;BME280;7622;42.724;23.250;2022-10-31T08:52:23;95324.25;;;25.23;56.82
15050;BME280;7622;42.724;23.250;2022-10-31T08:54:50;95321.34;;;25.49;55.59
15050;BME280;7622;42.724;23.250;2022-10-31T08:57:18;95321.69;;;26.14;52.37
15050;BME280;7622;42.724;23.250;2022-10-31T08:59:45;95317.78;;;26.65;50.91
15050;BME280;7622;42.724;23.250;2022-10-31T09:02:12;95324.00;;;26.59;49.75
15050;BME280;7622;42.724;23.250;2022-10-31T09:04:38;95320.97;;;26.25;51.25
15050;BME280;7622;42.724;23.250;2022-10-31T09:07:05;95330.66;;;26.68;50.09
15050;BME280;7622;42.724;23.250;2022-10-31T09:09:32;95330.28;;;26.35;50.43
15050;BME280;7622;42.724;23.250;2022-10-31T09:11:59;95321.63;;;26.69;49.85
15050;BME280;7622;42.724;23.250;2022-10-31T09:14:27;95328.63;;;26.52;49.47
15050;BME280;7622;42.724;23.250;2022-10-31T09:16:54;95328.75;;;26.57;49.59
15050;BME280;7622;42.724;23.250;2022-10-31T09:19:20;95283.56;;;25.84;50.86
15050;BME280;7622;42.724;23.250;2022-10-31T09:21:47;95321.25;;;26.36;49.91
15050;BME280;7622;42.724;23.250;2022-10-31T09:24:14;95326.50;;;27.02;48.52
15050;BME280;7622;42.724;23.250;2022-10-31T09:26:41;95321.53;;;27.29;48.55
15050;BME280;7622;42.724;23.250;2022-10-31T09:29:07;95317.72;;;27.36;46.99
15050;BME280;7622;42.724;23.250;2022-10-31T09:31:36;95322.81;;;27.26;46.42
15050;BME280;7622;42.724;23.250;2022-10-31T09:34:03;95318.41;;;27.20;46.73
15050;BME280;7622;42.724;23.250;2022-10-31T09:36:30;95247.16;;;26.97;46.52
15050;BME280;7622;42.724;23.250;2022-10-31T09:38:57;95304.06;;;26.91;46.75
15050;BME280;7622;42.724;23.250;2022-10-31T09:41:28;95314.81;;;26.85;46.79
15050;BME280;7622;42.724;23.250;2022-10-31T09:44:02;95319.34;;;26.84;47.36
15050;BME280;7622;42.724;23.250;2022-10-31T09:46:41;95298.47;;;27.69;45.30
15050;BME280;7622;42.724;23.250;2022-10-31T09:49:29;95260.75;;;27.31;45.05
15050;BME280;7622;42.724;23.250;2022-10-31T09:52:01;95307.34;;;26.93;46.41
15050;BME280;7622;42.724;23.250;2022-10-31T09:54:35;95310.50;;;27.02;46.01
15050;BME280;7622;42.724;23.250;2022-10-31T09:57:05;95306.00;;;27.49;45.37
15050;BME280;7622;42.724;23.250;2022-10-31T09:59:39;95298.88;;;28.01;44.09
15050;BME280;7622;42.724;23.250;2022-10-31T10:02:13;95292.28;;;27.80;44.13
15050;BME280;7622;42.724;23.250;2022-10-31T10:04:46;95293.50;;;28.25;43.38
15050;BME280;7622;42.724;23.250;2022-10-31T10:07:23;95294.34;;;28.82;42.72
15050;BME280;7622;42.724;23.250;2022-10-31T10:09:52;95292.78;;;28.57;42.38
15050;BME280;7622;42.724;23.250;2022-10-31T10:12:42;95288.75;;;28.55;42.65
15050;BME280;7622;42.724;23.250;2022-10-31T10:15:29;95276.06;;;28.50;42.33
15050;BME280;7622;42.724;23.250;2022-10-31T10:18:03;95280.16;;;28.13;43.10
15050;BME280;7622;42.724;23.250;2022-10-31T10:20:35;95276.44;;;28.42;42.88
15050;BME280;7622;42.724;23.250;2022-10-31T10:23:29;95278.75;;;28.10;42.26
15050;BME280;7622;42.724;23.250;2022-10-31T10:26:02;95268.06;;;28.22;42.53
15050;BME280;7622;42.724;23.250;2022-10-31T10:28:35;95265.34;;;28.34;42.53
15050;BME280;7622;42.724;23.250;2022-10-31T10:31:08;95270.19;;;28.48;42.43
15050;BME280;7622;42.724;23.250;2022-10-31T10:33:41;95265.66;;;28.20;42.33
15050;BME280;7622;42.724;23.250;2022-10-31T10:36:12;95262.31;;;28.58;41.63
15050;BME280;7622;42.724;23.250;2022-10-31T10:38:48;95252.66;;;29.19;40.72
15050;BME280;7622;42.724;23.250;2022-10-31T10:41:17;95250.44;;;28.38;41.25
15050;BME280;7622;42.724;23.250;2022-10-31T10:43:44;95252.16;;;27.29;42.59
15050;BME280;7622;42.724;23.250;2022-10-31T10:46:19;95248.84;;;27.97;41.98
15050;BME280;7622;42.724;23.250;2022-10-31T10:49:12;95245.53;;;28.75;41.11
15050;BME280;7622;42.724;23.250;2022-10-31T10:51:45;95240.25;;;28.80;40.40
15050;BME280;7622;42.724;23.250;2022-10-31T10:54:39;95244.63;;;28.86;40.13
15050;BME280;7622;42.724;23.250;2022-10-31T10:57:14;95237.88;;;28.10;41.03
15050;BME280;7622;42.724;23.250;2022-10-31T10:59:44;95226.16;;;28.39;41.23
15050;BME280;7622;42.724;23.250;2022-10-31T11:02:16;95238.22;;;28.87;40.49
15050;BME280;7622;42.724;23.250;2022-10-31T11:04:47;95235.47;;;28.82;40.42
15050;BME280;7622;42.724;23.250;2022-10-31T11:07:14;95242.09;;;28.63;40.49
15050;BME280;7622;42.724;23.250;2022-10-31T11:09:40;95231.25;;;28.86;40.29
15050;BME280;7622;42.724;23.250;2022-10-31T11:12:09;95227.88;;;28.17;40.93
15050;BME280;7622;42.724;23.250;2022-10-31T11:14:43;95220.97;;;28.49;40.78
15050;BME280;7622;42.724;23.250;2022-10-31T11:17:20;95231.38;;;28.63;40.41
15050;BME280;7622;42.724;23.250;2022-10-31T11:20:03;95227.13;;;28.78;39.97
15050;BME280;7622;42.724;23.250;2022-10-31T11:22:30;95214.84;;;28.66;40.28
15050;BME280;7622;42.724;23.250;2022-10-31T11:24:57;95214.09;;;28.53;39.81
15050;BME280;7622;42.724;23.250;2022-10-31T11:27:25;95209.38;;;28.44;40.43
15050;BME280;7622;42.724;23.250;2022-10-31T11:29:52;95213.53;;;28.35;40.18
15050;BME280;7622;42.724;23.250;2022-10-31T11:32:29;95207.59;;;28.33;40.29
15050;BME280;7622;42.724;23.250;2022-10-31T11:35:00;95212.72;;;28.34;40.47
15050;BME280;7622;42.724;23.250;2022-10-31T11:37:29;95197.47;;;28.35;40.42
15050;BME280;7622;42.724;23.250;2022-10-31T11:39:59;95198.31;;;27.95;40.83
15050;BME280;7622;42.724;23.250;2022-10-31T11:42:29;95190.00;;;28.20;40.59
15050;BME280;7622;42.724;23.250;2022-10-31T11:45:04;95193.47;;;27.92;41.17
15050;BME280;7622;42.724;23.250;2022-10-31T11:47:33;95194.16;;;27.88;41.40
15050;BME280;7622;42.724;23.250;2022-10-31T11:50:10;95200.19;;;27.31;41.90
15050;BME280;7622;42.724;23.250;2022-10-31T11:52:39;95188.69;;;27.42;41.83
15050;BME280;7622;42.724;23.250;2022-10-31T11:55:15;95185.34;;;27.24;42.57
15050;BME280;7622;42.724;23.250;2022-10-31T11:57:45;95184.53;;;27.12;42.50
15050;BME280;7622;42.724;23.250;2022-10-31T12:00:26;95187.84;;;26.84;43.08
15050;BME280;7622;42.724;23.250;2022-10-31T12:03:10;95178.50;;;26.93;43.02
15050;BME280;7622;42.724;23.250;2022-10-31T12:05:39;95175.13;;;26.97;42.89
15050;BME280;7622;42.724;23.250;2022-10-31T12:08:07;95178.81;;;26.73;43.20
15050;BME280;7622;42.724;23.250;2022-10-31T12:10:42;95176.50;;;26.65;43.89
15050;BME280;7622;42.724;23.250;2022-10-31T12:13:26;95176.72;;;26.63;45.56
15050;BME280;7622;42.724;23.250;2022-10-31T12:16:02;95180.63;;;26.38;44.82
15050;BME280;7622;42.724;23.250;2022-10-31T12:18:43;95179.34;;;26.10;45.72
15050;BME280;7622;42.724;23.250;2022-10-31T12:21:22;95144.81;;;25.92;49.03
15050;BME280;7622;42.724;23.250;2022-10-31T12:24:00;95172.13;;;25.69;46.58
15050;BME280;7622;42.724;23.250;2022-10-31T12:26:34;95172.03;;;25.76;46.97
15050;BME280;7622;42.724;23.250;2022-10-31T12:29:16;95164.19;;;25.81;47.26
15050;BME280;7622;42.724;23.250;2022-10-31T12:31:57;95167.97;;;25.73;46.79
15050;BME280;7622;42.724;23.250;2022-10-31T12:35:00;95168.53;;;25.64;47.24
15050;BME280;7622;42.724;23.250;2022-10-31T12:37:44;95160.38;;;25.59;47.63
15050;BME280;7622;42.724;23.250;2022-10-31T12:40:56;95157.53;;;25.54;47.29
15050;BME280;7622;42.724;23.250;2022-10-31T12:43:36;95160.50;;;25.45;47.78
15050;BME280;7622;42.724;23.250;2022-10-31T12:46:13;95111.94;;;25.02;47.83
15050;BME280;7622;42.724;23.250;2022-10-31T12:49:01;95162.00;;;25.60;47.53
15050;BME280;7622;42.724;23.250;2022-10-31T12:51:38;95164.50;;;25.55;47.02
15050;BME280;7622;42.724;23.250;2022-10-31T12:54:19;95159.47;;;25.83;46.23
15050;BME280;7622;42.724;23.250;2022-10-31T12:56:55;95158.50;;;25.77;46.62
15050;BME280;7622;42.724;23.250;2022-10-31T12:59:29;95162.72;;;25.48;47.65
15050;BME280;7622;42.724;23.250;2022-10-31T13:02:02;95157.13;;;25.38;47.76
15050;BME280;7622;42.724;23.250;2022-10-31T13:04:43;95165.25;;;25.43;47.28
15050;BME280;7622;42.724;23.250;2022-10-31T13:07:15;95164.28;;;25.01;48.06
15050;BME280;7622;42.724;23.250;2022-10-31T13:10:35;95157.31;;;24.82;48.63
15050;BME280;7622;42.724;23.250;2022-10-31T13:28:03;95153.00;;;24.81;49.51
15050;BME280;7622;42.724;23.250;2022-10-31T13:34:20;95152.41;;;25.22;48.41
15050;BME280;7622;42.724;23.250;2022-10-31T13:44:39;95141.81;;;24.97;47.96
15050;BME280;7622;42.724;23.250;2022-10-31T14:13:52;95162.63;;;23.94;46.64
15050;BME280;7622;42.724;23.250;2022-10-31T14:16:58;95170.06;;;23.79;46.98